createdAt,value
2023-04-11T00:01:33.694Z,2.60
2023-04-11T00:03:59.711Z,4.13
2023-04-11T00:06:25.758Z,2.97
2023-04-11T00:08:52.166Z,2.85
2023-04-11T00:11:18.441Z,3.78
2023-04-11T00:13:44.632Z,2.90
2023-04-11T00:16:10.991Z,1.80
2023-04-11T00:18:38.900Z,3.42
2023-04-11T00:21:09.640Z,5.57
2023-04-11T00:23:36.087Z,4.10
2023-04-11T00:26:02.625Z,4.72
2023-04-11T00:28:28.576Z,2.45
2023-04-11T00:30:54.592Z,2.05
2023-04-11T00:33:20.527Z,4.57
2023-04-11T00:35:47.097Z,3.60
2023-04-11T00:38:13.045Z,3.28
2023-04-11T00:40:39.093Z,2.47
2023-04-11T00:43:05.082Z,2.50
2023-04-11T00:45:31.840Z,2.95
2023-04-11T00:47:58.004Z,4.65
2023-04-11T00:50:24.422Z,2.92
2023-04-11T00:52:51.253Z,6.10
2023-04-11T00:55:17.151Z,3.88
2023-04-11T00:57:44.122Z,3.90
2023-04-11T01:00:11.181Z,5.13
2023-04-11T01:02:42.410Z,5.43
2023-04-11T01:05:10.450Z,6.43
2023-04-11T01:07:37.459Z,3.13
2023-04-11T01:10:05.198Z,6.55
2023-04-11T01:12:32.541Z,3.20
2023-04-11T01:14:58.747Z,3.65
2023-04-11T01:17:25.844Z,6.45
2023-04-11T01:19:52.222Z,4.75
2023-04-11T01:22:22.441Z,6.93
2023-04-11T01:24:48.793Z,7.78
2023-04-11T01:27:15.060Z,9.93
2023-04-11T01:29:40.967Z,6.97
2023-04-11T01:32:07.389Z,6.90
2023-04-11T01:34:35.304Z,7.40
2023-04-11T01:37:02.006Z,7.57
2023-04-11T01:39:28.084Z,7.05
2023-04-11T01:41:56.794Z,9.07
2023-04-11T01:44:24.831Z,6.30
2023-04-11T01:46:50.868Z,9.60
2023-04-11T01:49:18.196Z,8.48
2023-04-11T01:51:45.131Z,6.82
2023-04-11T01:54:11.144Z,8.02
2023-04-11T01:56:37.096Z,8.98
2023-04-11T01:59:03.785Z,9.95
2023-04-11T02:01:29.944Z,8.23
2023-04-11T02:03:55.985Z,12.52
2023-04-11T02:06:21.993Z,9.82
2023-04-11T02:08:47.898Z,8.60
2023-04-11T02:11:13.813Z,9.73
2023-04-11T02:13:39.766Z,9.30
2023-04-11T02:16:15.619Z,10.27
2023-04-11T02:18:42.680Z,6.82
2023-04-11T02:21:08.742Z,11.82
2023-04-11T02:23:34.751Z,8.52
2023-04-11T02:26:01.727Z,8.70
2023-04-11T02:28:27.680Z,15.55
2023-04-11T02:30:53.798Z,19.42
2023-04-11T02:33:19.929Z,12.77
2023-04-11T02:35:46.726Z,13.00
2023-04-11T02:38:12.838Z,10.80
2023-04-11T02:40:38.740Z,14.93
2023-04-11T02:43:04.666Z,18.80
2023-04-11T02:45:30.887Z,15.95
2023-04-11T02:47:57.720Z,11.70
2023-04-11T02:50:26.394Z,10.98
2023-04-11T02:52:52.835Z,10.95
2023-04-11T02:55:19.118Z,16.63
2023-04-11T02:57:45.059Z,12.32
2023-04-11T03:00:11.508Z,14.60
2023-04-11T03:02:37.588Z,17.80
2023-04-11T03:05:04.571Z,15.57
2023-04-11T03:07:31.801Z,18.63
2023-04-11T03:09:58.270Z,14.27
2023-04-11T03:12:24.190Z,17.58
2023-04-11T03:14:50.263Z,21.08
2023-04-11T03:17:16.242Z,17.92
2023-04-11T03:19:42.122Z,16.85
2023-04-11T03:22:10.836Z,16.77
2023-04-11T03:24:40.168Z,19.58
2023-04-11T03:27:06.283Z,18.48
2023-04-11T03:29:32.266Z,18.15
2023-04-11T03:31:59.097Z,12.88
2023-04-11T03:34:25.988Z,19.02
2023-04-11T03:36:52.199Z,19.73
2023-04-11T03:39:21.391Z,15.77
2023-04-11T03:41:48.190Z,21.55
2023-04-11T03:44:14.754Z,18.52
2023-04-11T03:46:40.646Z,19.23
2023-04-11T03:49:06.642Z,22.67
2023-04-11T03:51:33.000Z,18.52
2023-04-11T03:53:58.961Z,19.73
2023-04-11T03:56:25.033Z,18.25
2023-04-11T03:58:51.019Z,25.73
2023-04-11T04:01:16.956Z,14.88
2023-04-11T04:03:43.128Z,26.23
2023-04-11T04:06:09.321Z,17.63
2023-04-11T04:08:35.273Z,17.13
2023-04-11T04:11:01.146Z,16.58
2023-04-11T04:13:27.076Z,14.73
2023-04-11T04:15:53.179Z,19.67
2023-04-11T04:18:19.144Z,23.83
2023-04-11T04:20:46.370Z,13.88
2023-04-11T04:23:13.376Z,23.45
2023-04-11T04:25:41.439Z,21.95
2023-04-11T04:28:09.213Z,21.20
2023-04-11T04:30:37.305Z,18.40
2023-04-11T04:33:03.796Z,15.20
2023-04-11T04:35:29.734Z,22.83
2023-04-11T04:37:55.701Z,25.90
2023-04-11T04:40:21.921Z,15.32
2023-04-11T04:42:57.641Z,17.73
2023-04-11T04:45:24.776Z,23.30
2023-04-11T04:47:50.734Z,23.45
2023-04-11T04:50:16.704Z,22.63
2023-04-11T04:52:42.697Z,25.45
2023-04-11T04:55:08.901Z,18.27
2023-04-11T04:57:34.821Z,18.15
2023-04-11T05:00:00.777Z,21.38
2023-04-11T05:02:32.152Z,22.92
2023-04-11T05:05:03.292Z,18.40
2023-04-11T05:07:29.806Z,17.63
2023-04-11T05:09:55.684Z,22.92
2023-04-11T05:12:26.330Z,20.77
2023-04-11T05:14:52.485Z,18.15
2023-04-11T05:17:18.476Z,18.67
2023-04-11T05:19:45.080Z,15.57
2023-04-11T05:22:10.986Z,14.77
2023-04-11T05:24:36.929Z,15.13
2023-04-11T05:27:02.965Z,7.97
2023-04-11T05:29:29.337Z,8.48
2023-04-11T05:31:55.394Z,10.85
2023-04-11T05:34:21.328Z,9.18
2023-04-11T05:36:47.301Z,10.90
2023-04-11T05:39:13.319Z,21.20
2023-04-11T05:41:39.300Z,10.02
2023-04-11T05:44:05.398Z,13.77
2023-04-11T05:46:34.976Z,20.73
2023-04-11T05:49:01.048Z,12.52
2023-04-11T05:51:27.027Z,16.83
2023-04-11T05:53:52.949Z,18.45
2023-04-11T05:56:19.113Z,18.88
2023-04-11T05:58:45.061Z,13.80
2023-04-11T06:01:17.778Z,15.77
2023-04-11T06:03:45.500Z,16.55
2023-04-11T06:06:11.706Z,19.88
2023-04-11T06:08:37.924Z,19.95
2023-04-11T06:11:04.243Z,14.43
2023-04-11T06:13:30.187Z,17.30
2023-04-11T06:15:56.188Z,17.40
2023-04-11T06:18:22.250Z,13.98
2023-04-11T06:20:48.931Z,18.25
2023-04-11T06:23:14.909Z,12.93
2023-04-11T06:25:40.975Z,9.85
2023-04-11T06:28:07.116Z,11.82
2023-04-11T06:30:32.987Z,18.35
2023-04-11T06:32:58.976Z,13.15
2023-04-11T06:35:25.061Z,13.85
2023-04-11T06:37:51.599Z,14.88
2023-04-11T06:40:19.868Z,11.35
2023-04-11T06:42:46.709Z,13.55
2023-04-11T06:45:13.353Z,16.73
2023-04-11T06:47:39.830Z,10.55
2023-04-11T06:50:06.410Z,8.32
2023-04-11T06:52:32.298Z,11.10
2023-04-11T06:54:58.265Z,7.55
2023-04-11T06:57:24.359Z,9.13
2023-04-11T06:59:50.446Z,10.57
2023-04-11T07:02:16.435Z,12.93
2023-04-11T07:04:42.657Z,9.85
2023-04-11T07:07:08.654Z,9.75
2023-04-11T07:09:35.267Z,14.80
2023-04-11T07:12:01.549Z,16.60
2023-04-11T07:14:27.608Z,15.02
2023-04-11T07:16:53.528Z,18.80
2023-04-11T07:19:19.621Z,15.88
2023-04-11T07:21:45.550Z,14.35
2023-04-11T07:24:12.581Z,21.90
2023-04-11T07:26:41.644Z,20.73
2023-04-11T07:29:10.993Z,20.25
2023-04-11T07:31:38.346Z,16.08
2023-04-11T07:34:04.336Z,16.92
2023-04-11T07:36:30.948Z,21.17
2023-04-11T07:38:59.171Z,16.13
2023-04-11T07:41:25.130Z,17.00
2023-04-11T07:43:51.037Z,12.60
2023-04-11T07:46:17.105Z,17.08
2023-04-11T07:48:43.132Z,12.90
2023-04-11T07:51:09.154Z,15.23
2023-04-11T07:53:35.694Z,13.75
2023-04-11T07:56:01.729Z,14.98
2023-04-11T07:58:27.898Z,13.32
2023-04-11T08:00:53.908Z,12.73
2023-04-11T08:03:20.356Z,8.02
2023-04-11T08:05:46.698Z,12.35
2023-04-11T08:08:13.024Z,15.80
2023-04-11T08:10:38.953Z,10.20
2023-04-11T08:13:04.916Z,8.57
2023-04-11T08:15:31.187Z,12.98
2023-04-11T08:17:57.259Z,8.90
2023-04-11T08:20:24.011Z,11.32
2023-04-11T08:22:50.093Z,8.35
2023-04-11T08:25:19.274Z,13.90
2023-04-11T08:27:45.211Z,11.18
2023-04-11T08:30:11.635Z,15.52
2023-04-11T08:32:38.063Z,17.80
2023-04-11T08:35:04.786Z,13.70
2023-04-11T08:37:30.885Z,15.35
2023-04-11T08:39:56.940Z,17.05
2023-04-11T08:42:24.465Z,9.88
2023-04-11T08:44:58.501Z,11.05
2023-04-11T08:47:24.963Z,13.20
2023-04-11T08:49:52.100Z,14.75
2023-04-11T08:52:19.508Z,8.57
2023-04-11T08:54:46.196Z,8.27
2023-04-11T08:57:25.446Z,10.65
2023-04-11T08:59:53.335Z,12.75
2023-04-11T09:02:19.464Z,7.15
2023-04-11T09:04:46.721Z,10.63
2023-04-11T09:07:14.899Z,14.55
2023-04-11T09:09:40.979Z,11.02
2023-04-11T09:12:08.291Z,7.32
2023-04-11T09:14:34.546Z,9.88
2023-04-11T09:17:05.724Z,13.48
2023-04-11T09:19:33.511Z,6.35
2023-04-11T09:22:01.150Z,7.47
2023-04-11T09:24:29.373Z,9.80
2023-04-11T09:27:08.086Z,7.93
2023-04-11T09:29:42.812Z,8.98
2023-04-11T09:32:31.935Z,12.27
2023-04-11T09:35:27.831Z,8.52
2023-04-11T09:37:56.088Z,7.55
2023-04-11T09:40:27.038Z,9.43
2023-04-11T09:42:58.591Z,12.43
2023-04-11T09:45:25.512Z,11.73
2023-04-11T09:47:53.835Z,9.68
2023-04-11T09:50:20.159Z,8.32
2023-04-11T09:52:46.675Z,10.82
2023-04-11T09:55:18.927Z,8.57
2023-04-11T09:57:47.392Z,12.75
2023-04-11T10:00:16.253Z,7.55
2023-04-11T10:02:44.451Z,7.05
2023-04-11T10:05:13.669Z,9.65
2023-04-11T10:07:47.496Z,7.72
2023-04-11T10:10:19.381Z,8.23
2023-04-11T10:12:45.758Z,8.15
2023-04-11T10:15:12.250Z,6.95
2023-04-11T10:17:39.977Z,8.35
2023-04-11T10:20:42.745Z,9.35
2023-04-11T10:23:09.662Z,6.00
2023-04-11T10:25:50.311Z,10.85
2023-04-11T10:28:34.468Z,8.35
2023-04-11T10:31:22.346Z,7.93
2023-04-11T10:34:13.691Z,8.10
2023-04-11T10:37:05.484Z,12.15
2023-04-11T10:39:59.810Z,6.70
2023-04-11T10:42:46.099Z,6.47
2023-04-11T10:45:25.886Z,9.10
2023-04-11T10:48:02.942Z,8.45
2023-04-11T10:50:36.233Z,5.88
2023-04-11T10:53:04.703Z,5.80
2023-04-11T10:55:43.270Z,10.10
2023-04-11T10:58:19.064Z,4.65
2023-04-11T11:00:51.712Z,4.43
2023-04-11T11:03:22.997Z,7.13
2023-04-11T11:06:02.427Z,7.55
2023-04-11T11:08:42.197Z,11.20
2023-04-11T11:11:09.903Z,8.55
2023-04-11T11:13:43.357Z,7.85
2023-04-11T11:16:13.763Z,8.88
2023-04-11T11:18:39.918Z,9.68
2023-04-11T11:21:09.289Z,10.70
2023-04-11T11:23:40.164Z,8.85
2023-04-11T11:26:06.984Z,6.78
2023-04-11T11:28:32.893Z,7.57
2023-04-11T11:30:58.829Z,5.47
2023-04-11T11:33:28.608Z,10.10
2023-04-11T11:36:03.787Z,7.85
2023-04-11T11:38:30.712Z,5.63
2023-04-11T11:40:58.301Z,10.45
2023-04-11T11:43:27.955Z,5.60
2023-04-11T11:46:14.305Z,4.70
2023-04-11T11:48:58.123Z,4.15
2023-04-11T11:51:24.997Z,3.22
2023-04-11T11:54:04.954Z,5.47
2023-04-11T11:56:31.155Z,6.38
2023-04-11T11:58:57.293Z,4.13
2023-04-11T12:01:23.307Z,4.43
2023-04-11T12:03:52.995Z,5.72
2023-04-11T12:06:20.126Z,6.75
2023-04-11T12:08:51.282Z,5.38
2023-04-11T12:11:17.810Z,6.45
2023-04-11T12:13:47.148Z,6.40
2023-04-11T12:16:14.072Z,4.88
2023-04-11T12:18:41.626Z,4.18
2023-04-11T12:21:07.543Z,6.25
2023-04-11T12:23:33.494Z,6.90
2023-04-11T12:25:59.973Z,4.18
2023-04-11T12:28:25.906Z,4.25
2023-04-11T12:30:51.833Z,4.38
2023-04-11T12:33:17.735Z,6.43
2023-04-11T12:35:43.658Z,6.53
2023-04-11T12:38:10.938Z,7.43
2023-04-11T12:40:39.284Z,4.55
2023-04-11T12:43:05.332Z,6.05
2023-04-11T12:45:34.180Z,5.50
2023-04-11T12:48:00.994Z,8.10
2023-04-11T12:50:27.042Z,5.55
2023-04-11T12:52:53.014Z,7.15
2023-04-11T12:55:19.149Z,4.43
2023-04-11T12:57:45.311Z,5.55
2023-04-11T13:00:12.125Z,5.78
2023-04-11T13:02:43.864Z,6.05
2023-04-11T13:05:13.222Z,4.95
2023-04-11T13:07:39.289Z,6.45
2023-04-11T13:10:08.919Z,5.53
2023-04-11T13:12:40.282Z,6.35
2023-04-11T13:15:14.246Z,8.80
2023-04-11T13:17:40.309Z,8.90
2023-04-11T13:20:09.194Z,6.47
2023-04-11T13:22:36.723Z,5.05
2023-04-11T13:25:03.067Z,8.40
2023-04-11T13:27:29.018Z,6.13
2023-04-11T13:29:54.974Z,7.53
2023-04-11T13:32:20.785Z,7.00
2023-04-11T13:34:46.678Z,5.75
2023-04-11T13:37:12.632Z,7.55
2023-04-11T13:39:38.522Z,6.90
2023-04-11T13:42:04.531Z,4.85
2023-04-11T13:44:32.854Z,7.18
2023-04-11T13:46:58.998Z,7.78
2023-04-11T13:49:24.983Z,7.18
2023-04-11T13:51:50.839Z,6.82
2023-04-11T13:54:16.721Z,4.63
2023-04-11T13:56:42.581Z,3.13
2023-04-11T13:59:08.496Z,8.40
2023-04-11T14:01:34.418Z,3.95
2023-04-11T14:04:00.656Z,5.35
2023-04-11T14:06:26.822Z,6.30
2023-04-11T14:08:52.653Z,5.10
2023-04-11T14:11:18.526Z,9.20
2023-04-11T14:13:44.346Z,6.53
2023-04-11T14:16:10.470Z,5.97
2023-04-11T14:18:36.502Z,7.15
2023-04-11T14:21:05.173Z,4.88
2023-04-11T14:23:31.115Z,5.18
2023-04-11T14:25:57.175Z,7.50
2023-04-11T14:28:26.494Z,5.90
2023-04-11T14:30:52.825Z,7.68
2023-04-11T14:33:18.959Z,8.88
2023-04-11T14:35:46.586Z,6.00
2023-04-11T14:38:14.331Z,6.90
2023-04-11T14:40:40.869Z,4.85
2023-04-11T14:43:06.804Z,9.55
2023-04-11T14:45:34.288Z,6.57
2023-04-11T14:48:00.633Z,8.35
2023-04-11T14:50:29.155Z,5.95
2023-04-11T14:52:55.214Z,7.65
2023-04-11T14:55:21.239Z,12.07
2023-04-11T14:57:50.865Z,5.82
2023-04-11T15:00:23.877Z,4.68
2023-04-11T15:02:54.920Z,7.38
2023-04-11T15:05:23.274Z,7.28
2023-04-11T15:07:50.923Z,6.93
2023-04-11T15:10:20.100Z,4.60
2023-04-11T15:12:46.347Z,6.30
2023-04-11T15:15:12.885Z,5.53
2023-04-11T15:17:46.398Z,4.78
2023-04-11T15:20:16.197Z,5.35
2023-04-11T15:22:44.478Z,6.50
2023-04-11T15:25:13.091Z,6.53
2023-04-11T15:27:39.838Z,4.68
2023-04-11T15:32:47.637Z,7.32
2023-04-11T15:35:13.654Z,6.30
2023-04-11T15:37:41.156Z,5.72
2023-04-11T15:40:11.225Z,7.68
2023-04-11T15:42:37.616Z,14.70
2023-04-11T15:45:04.273Z,5.38
2023-04-11T15:47:30.716Z,8.45
2023-04-11T15:49:58.316Z,7.57
2023-04-11T15:52:24.164Z,7.15
2023-04-11T15:54:50.005Z,6.40
2023-04-11T15:57:19.360Z,6.15
2023-04-11T15:59:45.676Z,6.38
2023-04-11T16:02:11.869Z,8.45
2023-04-11T16:04:38.349Z,4.95
2023-04-11T16:07:05.902Z,5.10
2023-04-11T16:09:32.102Z,4.75
2023-04-11T16:11:57.915Z,8.65
2023-04-11T16:14:24.355Z,6.38
2023-04-11T16:16:52.869Z,7.00
2023-04-11T16:19:18.953Z,6.28
2023-04-11T16:21:45.062Z,7.47
2023-04-11T16:24:10.942Z,7.70
2023-04-11T16:26:36.920Z,5.95
2023-04-11T16:29:03.244Z,7.15
2023-04-11T16:31:31.318Z,4.78
2023-04-11T16:33:57.550Z,4.75
2023-04-11T16:36:23.695Z,6.13
2023-04-11T16:38:49.842Z,4.20
2023-04-11T16:41:18.794Z,6.40
2023-04-11T16:43:44.860Z,4.20
2023-04-11T16:46:12.796Z,5.22
2023-04-11T16:48:39.584Z,4.05
2023-04-11T16:51:05.842Z,3.55
2023-04-11T16:53:31.778Z,2.10
2023-04-11T16:55:57.681Z,6.18
2023-04-11T16:58:23.589Z,7.32
2023-04-11T17:00:50.428Z,2.80
2023-04-11T17:03:17.128Z,5.28
2023-04-11T17:05:45.191Z,4.35
2023-04-11T17:08:11.703Z,6.20
2023-04-11T17:10:37.605Z,5.95
2023-04-11T17:13:03.434Z,2.75
2023-04-11T17:15:29.960Z,5.57
2023-04-11T17:17:56.057Z,4.53
2023-04-11T17:20:22.621Z,7.97
2023-04-11T17:22:48.540Z,4.60
2023-04-11T17:25:14.434Z,18.83
2023-04-11T17:27:40.603Z,7.75
2023-04-11T17:30:11.479Z,5.07
2023-04-11T17:32:38.372Z,5.32
2023-04-11T17:35:07.621Z,6.18
2023-04-11T17:37:35.176Z,3.88
2023-04-11T17:40:01.369Z,5.00
2023-04-11T17:42:27.236Z,4.15
2023-04-11T17:44:54.657Z,7.18
2023-04-11T17:47:21.737Z,7.18
2023-04-11T17:49:47.845Z,6.20
2023-04-11T17:52:13.739Z,6.43
2023-04-11T17:54:39.571Z,8.90
2023-04-11T17:57:06.197Z,5.80
2023-04-11T17:59:32.090Z,8.27
2023-04-11T18:01:58.032Z,6.10
2023-04-11T18:04:24.153Z,7.13
2023-04-11T18:06:50.219Z,4.78
2023-04-11T18:09:16.472Z,7.15
2023-04-11T18:11:43.115Z,6.65
2023-04-11T18:14:09.152Z,9.00
2023-04-11T18:16:35.551Z,7.03
2023-04-11T18:19:01.452Z,6.90
2023-04-11T18:21:27.496Z,8.52
2023-04-11T18:23:53.529Z,6.60
2023-04-11T18:26:19.539Z,6.10
2023-04-11T18:28:45.371Z,7.90
2023-04-11T18:31:11.363Z,7.45
2023-04-11T18:33:41.908Z,5.50
2023-04-11T18:36:09.158Z,5.72
2023-04-11T18:38:35.112Z,8.35
2023-04-11T18:41:05.826Z,7.82
2023-04-11T18:43:33.352Z,5.63
2023-04-11T18:46:00.936Z,9.15
2023-04-11T18:48:26.809Z,11.77
2023-04-11T18:50:59.842Z,7.45
2023-04-11T18:53:27.593Z,7.93
2023-04-11T18:55:54.074Z,6.97
2023-04-11T18:58:23.125Z,6.60
2023-04-11T19:00:50.980Z,10.45
2023-04-11T19:03:17.321Z,9.60
2023-04-11T19:05:45.172Z,9.07
2023-04-11T19:08:11.417Z,13.95
2023-04-11T19:10:39.229Z,11.75
2023-04-11T19:13:05.697Z,12.00
2023-04-11T19:15:31.596Z,10.32
2023-04-11T19:17:57.694Z,7.60
2023-04-11T19:20:28.577Z,13.27
2023-04-11T19:22:54.560Z,10.20
2023-04-11T19:25:20.548Z,7.93
2023-04-11T19:27:46.706Z,7.38
2023-04-11T19:30:12.846Z,7.03
2023-04-11T19:32:42.217Z,10.77
2023-04-11T19:35:09.526Z,9.48
2023-04-11T19:37:35.828Z,9.30
2023-04-11T19:40:06.328Z,12.90
2023-04-11T19:42:35.924Z,4.60
2023-04-11T19:45:03.750Z,10.50
2023-04-11T19:47:30.698Z,6.53
2023-04-11T19:50:00.176Z,8.32
2023-04-11T19:52:26.706Z,6.30
2023-04-11T19:54:54.146Z,7.53
2023-04-11T19:57:21.868Z,15.25
2023-04-11T19:59:49.142Z,10.20
2023-04-11T20:02:15.112Z,7.80
2023-04-11T20:04:43.938Z,7.78
2023-04-11T20:07:09.844Z,8.45
2023-04-11T20:09:35.943Z,9.82
2023-04-11T20:12:02.622Z,8.68
2023-04-11T20:14:28.480Z,7.32
2023-04-11T20:16:54.435Z,10.23
2023-04-11T20:19:21.367Z,10.80
2023-04-11T20:21:47.383Z,10.40
2023-04-11T20:24:14.707Z,6.15
2023-04-11T20:26:40.541Z,9.68
2023-04-11T20:29:07.223Z,11.73
2023-04-11T20:31:33.530Z,9.18
2023-04-11T20:34:00.810Z,9.60
2023-04-11T20:36:28.654Z,10.32
2023-04-11T20:38:55.217Z,9.85
2023-04-11T20:41:21.684Z,10.20
2023-04-11T20:43:47.561Z,7.80
2023-04-11T20:46:13.563Z,10.63
2023-04-11T20:48:42.318Z,9.57
2023-04-11T20:51:09.110Z,11.82
2023-04-11T20:53:35.522Z,10.13
2023-04-11T20:56:01.869Z,8.65
2023-04-11T20:58:27.789Z,12.35
2023-04-11T21:00:54.040Z,9.07
2023-04-11T21:03:20.544Z,10.63
2023-04-11T21:05:46.525Z,10.43
2023-04-11T21:08:13.380Z,8.63
2023-04-11T21:10:39.387Z,8.32
2023-04-11T21:13:05.182Z,6.65
2023-04-11T21:15:34.922Z,6.05
2023-04-11T21:18:06.111Z,10.32
2023-04-11T21:20:33.822Z,6.03
2023-04-11T21:22:59.960Z,6.38
2023-04-11T21:25:25.972Z,11.88
2023-04-11T21:27:52.169Z,11.77
2023-04-11T21:30:18.481Z,8.77
2023-04-11T21:32:45.013Z,5.00
2023-04-11T21:35:11.389Z,7.35
2023-04-11T21:37:37.289Z,10.40
2023-04-11T21:40:03.675Z,7.72
2023-04-11T21:42:30.870Z,6.78
2023-04-11T21:44:57.039Z,14.40
2023-04-11T21:47:22.885Z,4.00
2023-04-11T21:49:49.177Z,6.07
2023-04-11T21:52:15.086Z,7.53
2023-04-11T21:54:44.313Z,9.55
2023-04-11T21:57:10.509Z,7.57
2023-04-11T21:59:37.794Z,6.97
2023-04-11T22:02:03.760Z,8.25
2023-04-11T22:04:31.385Z,6.40
2023-04-11T22:06:57.651Z,10.88
2023-04-11T22:09:23.725Z,4.68
2023-04-11T22:11:49.936Z,8.35
2023-04-11T22:14:15.979Z,10.45
2023-04-11T22:16:48.180Z,6.10
2023-04-11T22:19:17.193Z,4.53
2023-04-11T22:21:54.900Z,6.03
2023-04-11T22:24:30.187Z,5.10
2023-04-11T22:26:57.509Z,5.32
2023-04-11T22:29:29.439Z,4.03
2023-04-11T22:31:56.563Z,9.52
2023-04-11T22:34:23.776Z,4.07
2023-04-11T22:36:49.622Z,5.53
2023-04-11T22:39:15.669Z,5.20
2023-04-11T22:41:41.553Z,6.88
2023-04-11T22:44:07.471Z,9.05
2023-04-11T22:46:38.777Z,7.55
2023-04-11T22:49:05.766Z,9.35
2023-04-11T22:51:31.968Z,7.07
2023-04-11T22:53:58.138Z,6.45
2023-04-11T22:56:24.308Z,5.20
2023-04-11T22:58:51.932Z,4.85
2023-04-11T23:01:18.041Z,12.85
2023-04-11T23:03:43.876Z,6.60
2023-04-11T23:06:10.214Z,8.40
2023-04-11T23:08:36.367Z,9.20
2023-04-11T23:11:02.412Z,6.90
2023-04-11T23:13:28.454Z,5.90
2023-04-11T23:15:54.936Z,6.78
2023-04-11T23:18:20.769Z,5.53
2023-04-11T23:20:49.908Z,8.93
2023-04-11T23:23:16.049Z,6.03
2023-04-11T23:25:42.208Z,6.68
2023-04-11T23:28:08.239Z,9.90
2023-04-11T23:30:35.847Z,9.35
2023-04-11T23:33:02.120Z,4.60
2023-04-11T23:35:28.227Z,5.40
2023-04-11T23:37:54.223Z,7.18
2023-04-11T23:40:20.668Z,7.13
2023-04-11T23:42:46.530Z,6.68
2023-04-11T23:45:14.233Z,9.65
2023-04-11T23:47:40.526Z,9.02
2023-04-11T23:50:08.330Z,5.43
2023-04-11T23:52:34.515Z,9.50
2023-04-11T23:55:00.351Z,4.60
2023-04-11T23:57:26.394Z,6.38
2023-04-11T23:59:52.592Z,7.68
